createdAt,value
2022-08-20T00:01:22.284Z,20.87
2022-08-20T00:03:53.308Z,19.57
2022-08-20T00:06:20.111Z,15.60
2022-08-20T00:08:46.681Z,22.77
2022-08-20T00:11:13.265Z,20.60
2022-08-20T00:13:40.103Z,25.60
2022-08-20T00:16:06.671Z,25.17
2022-08-20T00:18:33.231Z,24.27
2022-08-20T00:21:00.960Z,24.80
2022-08-20T00:23:27.560Z,19.13
2022-08-20T00:25:54.127Z,19.80
2022-08-20T00:28:20.761Z,26.00
2022-08-20T00:30:47.329Z,27.67
2022-08-20T00:33:13.906Z,21.43
2022-08-20T00:35:40.453Z,18.83
2022-08-20T00:38:07.024Z,21.03
2022-08-20T00:40:34.341Z,20.70
2022-08-20T00:43:00.979Z,17.33
2022-08-20T00:45:27.552Z,13.83
2022-08-20T00:47:57.365Z,20.73
2022-08-20T00:50:24.319Z,18.73
2022-08-20T00:52:50.872Z,17.80
2022-08-20T00:55:17.409Z,13.70
2022-08-20T00:57:59.163Z,15.20
2022-08-20T01:00:28.223Z,13.07
2022-08-20T01:02:55.041Z,14.63
2022-08-20T01:05:23.450Z,20.23
2022-08-20T01:07:56.357Z,16.40
2022-08-20T01:10:23.023Z,17.90
2022-08-20T01:12:49.556Z,17.90
2022-08-20T01:15:26.913Z,15.90
2022-08-20T01:18:00.893Z,22.10
2022-08-20T01:20:27.441Z,18.63
2022-08-20T01:23:12.989Z,22.43
2022-08-20T01:25:39.515Z,18.47
2022-08-20T01:28:06.079Z,21.70
2022-08-20T01:30:32.652Z,13.97
2022-08-20T01:32:59.191Z,13.60
2022-08-20T01:35:25.798Z,15.90
2022-08-20T01:37:52.379Z,15.00
2022-08-20T01:40:19.024Z,15.10
2022-08-20T01:42:52.806Z,22.13
2022-08-20T01:45:27.928Z,20.23
2022-08-20T01:47:55.804Z,14.00
2022-08-20T01:50:24.148Z,19.50
2022-08-20T01:52:50.715Z,18.70
2022-08-20T01:55:17.253Z,13.10
2022-08-20T01:57:43.848Z,19.47
2022-08-20T02:00:11.114Z,14.00
2022-08-20T02:02:46.869Z,16.43
2022-08-20T02:05:13.850Z,14.17
2022-08-20T02:07:40.409Z,17.40
2022-08-20T02:10:06.993Z,10.30
2022-08-20T02:12:33.569Z,13.97
2022-08-20T02:15:00.489Z,10.57
2022-08-20T02:17:27.460Z,10.90
2022-08-20T02:19:54.182Z,5.60
2022-08-20T02:22:20.779Z,9.63
2022-08-20T02:24:48.160Z,14.30
2022-08-20T02:27:14.736Z,6.60
2022-08-20T02:29:41.331Z,11.00
2022-08-20T02:32:24.736Z,17.87
2022-08-20T02:34:55.454Z,8.33
2022-08-20T02:37:22.049Z,20.43
2022-08-20T02:39:48.694Z,12.00
2022-08-20T02:42:15.236Z,13.30
2022-08-20T02:44:41.801Z,18.00
2022-08-20T02:47:08.387Z,16.27
2022-08-20T02:49:35.436Z,21.03
2022-08-20T02:52:01.981Z,11.00
2022-08-20T02:54:29.338Z,10.70
2022-08-20T02:56:55.936Z,12.30
2022-08-20T02:59:22.521Z,16.90
2022-08-20T03:01:58.112Z,18.23
2022-08-20T03:04:27.210Z,11.00
2022-08-20T03:06:53.931Z,13.07
2022-08-20T03:09:20.577Z,10.10
2022-08-20T03:11:47.112Z,7.57
2022-08-20T03:14:13.910Z,9.13
2022-08-20T03:16:40.452Z,8.73
2022-08-20T03:19:07.556Z,13.93
2022-08-20T03:21:37.206Z,14.47
2022-08-20T03:24:03.782Z,26.57
2022-08-20T03:26:30.377Z,32.17
2022-08-20T03:28:56.922Z,29.83
2022-08-20T03:31:23.462Z,42.97
2022-08-20T03:33:53.374Z,39.80
2022-08-20T03:36:26.662Z,43.73
2022-08-20T03:38:55.290Z,44.90
2022-08-20T03:41:21.842Z,34.00
2022-08-20T03:43:48.447Z,39.80
2022-08-20T03:46:23.580Z,37.13
2022-08-20T03:48:50.580Z,40.10
2022-08-20T03:51:25.650Z,35.07
2022-08-20T03:53:52.314Z,40.90
2022-08-20T03:56:19.291Z,41.57
2022-08-20T03:58:46.334Z,37.53
2022-08-20T04:01:44.675Z,39.67
2022-08-20T04:03:59.498Z,39.30
2022-08-20T04:06:26.445Z,39.97
2022-08-20T04:08:53.782Z,36.93
2022-08-20T04:11:20.356Z,41.77
2022-08-20T04:13:46.913Z,31.00
2022-08-20T04:16:16.221Z,50.63
2022-08-20T04:18:43.416Z,37.87
2022-08-20T04:21:31.562Z,31.47
2022-08-20T04:23:59.836Z,43.77
2022-08-20T04:26:26.829Z,45.80
2022-08-20T04:28:55.326Z,39.17
2022-08-20T04:31:25.292Z,45.90
2022-08-20T04:33:52.309Z,35.47
2022-08-20T04:36:18.857Z,48.47
2022-08-20T04:38:50.297Z,35.13
2022-08-20T04:41:23.102Z,40.57
2022-08-20T04:43:50.428Z,44.23
2022-08-20T04:46:17.080Z,37.97
2022-08-20T04:48:48.691Z,41.40
2022-08-20T04:51:16.685Z,34.57
2022-08-20T04:53:43.327Z,33.10
2022-08-20T04:56:09.944Z,37.30
2022-08-20T04:58:36.521Z,31.77
2022-08-20T05:01:03.889Z,34.03
2022-08-20T05:03:30.585Z,36.60
2022-08-20T05:05:57.385Z,32.90
2022-08-20T05:08:24.311Z,33.07
2022-08-20T05:10:50.866Z,29.73
2022-08-20T05:13:26.792Z,34.23
2022-08-20T05:15:54.526Z,33.30
2022-08-20T05:18:21.102Z,34.03
2022-08-20T05:20:47.761Z,33.10
2022-08-20T05:23:14.333Z,32.80
2022-08-20T05:25:40.905Z,36.60
2022-08-20T05:28:09.487Z,35.23
2022-08-20T05:30:36.250Z,30.33
2022-08-20T05:33:03.913Z,35.70
2022-08-20T05:35:30.554Z,34.17
2022-08-20T05:37:57.610Z,35.10
2022-08-20T05:40:24.683Z,35.63
2022-08-20T05:42:51.386Z,34.93
2022-08-20T05:45:18.140Z,36.33
2022-08-20T05:47:44.811Z,38.60
2022-08-20T05:50:19.795Z,39.40
2022-08-20T05:52:50.165Z,38.77
2022-08-20T05:55:16.711Z,37.13
2022-08-20T05:57:43.302Z,32.50
2022-08-20T06:00:09.862Z,32.97
2022-08-20T06:02:55.725Z,28.93
2022-08-20T06:05:22.572Z,34.57
2022-08-20T06:07:50.661Z,31.77
2022-08-20T06:10:20.168Z,32.23
2022-08-20T06:12:47.298Z,33.17
2022-08-20T06:15:13.847Z,33.53
2022-08-20T06:17:40.586Z,40.30
2022-08-20T06:20:09.058Z,38.83
2022-08-20T06:22:36.200Z,35.67
2022-08-20T06:25:02.800Z,35.80
2022-08-20T06:27:29.742Z,38.60
2022-08-20T06:29:56.576Z,32.40
2022-08-20T06:32:32.296Z,36.70
2022-08-20T06:35:02.006Z,33.23
2022-08-20T06:37:31.215Z,40.30
2022-08-20T06:39:58.387Z,34.37
2022-08-20T06:42:24.966Z,34.40
2022-08-20T06:44:51.505Z,31.60
2022-08-20T06:47:18.090Z,37.30
2022-08-20T06:49:44.871Z,29.33
2022-08-20T06:52:11.680Z,29.80
2022-08-20T06:54:38.280Z,31.43
2022-08-20T06:57:04.903Z,34.03
2022-08-20T06:59:31.550Z,28.77
2022-08-20T07:01:58.129Z,29.77
2022-08-20T07:04:25.722Z,31.60
2022-08-20T07:06:52.342Z,32.97
2022-08-20T07:09:18.882Z,31.80
2022-08-20T07:11:45.788Z,29.60
2022-08-20T07:14:12.407Z,29.77
2022-08-20T07:16:39.054Z,26.77
2022-08-20T07:19:05.588Z,24.60
2022-08-20T07:21:32.648Z,32.93
2022-08-20T07:23:59.190Z,24.57
2022-08-20T07:26:25.748Z,26.57
2022-08-20T07:28:52.407Z,31.47
2022-08-20T07:31:37.949Z,26.40
2022-08-20T07:34:04.587Z,27.90
2022-08-20T07:36:31.155Z,31.97
2022-08-20T07:38:57.794Z,31.23
2022-08-20T07:41:24.778Z,29.63
2022-08-20T07:43:51.549Z,26.37
2022-08-20T07:46:18.746Z,35.07
2022-08-20T07:48:49.544Z,34.67
2022-08-20T07:51:17.663Z,37.50
2022-08-20T07:53:44.260Z,39.70
2022-08-20T07:56:11.459Z,31.67
2022-08-20T07:58:38.205Z,36.17
2022-08-20T08:01:05.552Z,36.77
2022-08-20T08:03:40.587Z,31.73
2022-08-20T08:06:17.259Z,56.00
2022-08-20T08:08:55.432Z,32.20
2022-08-20T08:11:22.016Z,40.20
2022-08-20T08:13:48.642Z,35.23
2022-08-20T08:16:15.237Z,33.83
2022-08-20T08:18:41.794Z,32.30
2022-08-20T08:21:08.376Z,32.20
2022-08-20T08:23:34.961Z,35.37
2022-08-20T08:26:03.971Z,30.17
2022-08-20T08:28:30.905Z,32.37
2022-08-20T08:30:57.721Z,28.50
2022-08-20T08:33:33.620Z,29.93
2022-08-20T08:36:00.267Z,33.10
2022-08-20T08:38:27.206Z,33.40
2022-08-20T08:40:59.794Z,30.40
2022-08-20T08:43:27.243Z,33.90
2022-08-20T08:45:58.708Z,29.43
2022-08-20T08:48:25.702Z,26.10
2022-08-20T08:50:53.215Z,24.40
2022-08-20T08:53:20.338Z,26.50
2022-08-20T08:55:46.882Z,22.13
2022-08-20T08:58:16.615Z,24.03
2022-08-20T09:00:52.836Z,23.00
2022-08-20T09:03:24.435Z,21.83
2022-08-20T09:05:50.971Z,25.53
2022-08-20T09:08:18.550Z,23.20
2022-08-20T09:10:45.117Z,26.90
2022-08-20T09:13:11.661Z,21.73
2022-08-20T09:15:38.266Z,20.33
2022-08-20T09:18:04.834Z,21.27
2022-08-20T09:20:31.386Z,23.00
2022-08-20T09:22:58.121Z,22.93
2022-08-20T09:25:24.847Z,23.97
2022-08-20T09:27:51.453Z,23.43
2022-08-20T09:30:18.057Z,23.93
2022-08-20T09:32:45.193Z,23.90
2022-08-20T09:35:13.217Z,16.20
2022-08-20T09:37:39.751Z,17.97
2022-08-20T09:40:07.075Z,18.63
2022-08-20T09:42:36.344Z,16.10
2022-08-20T09:45:10.858Z,22.67
2022-08-20T09:47:38.234Z,18.60
2022-08-20T09:50:08.244Z,19.87
2022-08-20T09:52:40.658Z,19.83
2022-08-20T09:55:07.406Z,17.47
2022-08-20T09:57:33.974Z,14.30
2022-08-20T10:00:00.579Z,16.70
2022-08-20T10:02:27.204Z,16.37
2022-08-20T10:04:53.813Z,15.27
2022-08-20T10:07:20.419Z,13.87
2022-08-20T10:09:46.962Z,16.70
2022-08-20T10:12:13.554Z,14.63
2022-08-20T10:14:40.114Z,15.80
2022-08-20T10:17:06.699Z,15.33
2022-08-20T10:19:33.594Z,13.57
2022-08-20T10:22:00.217Z,13.37
2022-08-20T10:24:26.824Z,13.43
2022-08-20T10:26:53.421Z,11.73
2022-08-20T10:29:20.005Z,28.43
2022-08-20T10:31:46.612Z,14.00
2022-08-20T10:34:13.154Z,19.03
2022-08-20T10:36:39.716Z,18.80
2022-08-20T10:39:06.315Z,12.33
2022-08-20T10:41:36.103Z,9.87
2022-08-20T10:44:04.993Z,15.03
2022-08-20T10:46:31.653Z,11.03
2022-08-20T10:48:58.217Z,12.17
2022-08-20T10:51:32.368Z,15.43
2022-08-20T10:53:59.453Z,11.33
2022-08-20T10:56:26.019Z,11.17
2022-08-20T10:58:52.548Z,13.53
2022-08-20T11:01:32.678Z,10.20
2022-08-20T11:04:00.657Z,13.53
2022-08-20T11:06:27.649Z,10.77
2022-08-20T11:08:54.218Z,13.10
2022-08-20T11:11:23.685Z,11.33
2022-08-20T11:13:50.256Z,14.83
2022-08-20T11:16:16.842Z,16.90
2022-08-20T11:18:47.488Z,11.83
2022-08-20T11:21:14.277Z,10.53
2022-08-20T11:23:40.889Z,14.10
2022-08-20T11:26:07.491Z,10.50
2022-08-20T11:28:34.071Z,11.07
2022-08-20T11:31:00.774Z,11.50
2022-08-20T11:33:27.307Z,11.03
2022-08-20T11:35:53.870Z,13.83
2022-08-20T11:38:20.496Z,15.87
2022-08-20T11:40:47.295Z,16.60
2022-08-20T11:43:15.549Z,19.90
2022-08-20T11:45:43.097Z,21.03
2022-08-20T11:48:09.675Z,23.83
2022-08-20T11:50:36.251Z,37.83
2022-08-20T11:53:02.883Z,31.27
2022-08-20T11:55:30.220Z,34.10
2022-08-20T11:57:59.654Z,41.77
2022-08-20T12:00:30.409Z,34.80
2022-08-20T12:03:00.610Z,33.80
2022-08-20T12:05:30.120Z,36.27
2022-08-20T12:07:56.803Z,37.30
2022-08-20T12:10:24.446Z,34.67
2022-08-20T12:12:51.058Z,36.67
2022-08-20T12:15:17.613Z,38.73
2022-08-20T12:17:44.194Z,36.43
2022-08-20T12:20:10.836Z,32.40
2022-08-20T12:22:37.437Z,28.07
2022-08-20T12:25:03.950Z,25.73
2022-08-20T12:27:30.575Z,23.23
2022-08-20T12:29:57.165Z,28.60
2022-08-20T12:32:23.957Z,25.70
2022-08-20T12:34:50.508Z,29.43
2022-08-20T12:37:17.147Z,28.73
2022-08-20T12:39:43.745Z,27.90
2022-08-20T12:42:10.857Z,24.13
2022-08-20T12:44:37.487Z,27.00
2022-08-20T12:47:04.041Z,26.67
2022-08-20T12:49:30.582Z,19.93
2022-08-20T12:51:57.151Z,19.97
2022-08-20T12:54:23.776Z,22.77
2022-08-20T12:56:51.960Z,22.57
2022-08-20T12:59:19.226Z,19.13
2022-08-20T13:01:47.689Z,20.77
2022-08-20T13:04:14.399Z,17.63
2022-08-20T13:06:40.997Z,16.20
2022-08-20T13:09:07.631Z,17.00
2022-08-20T13:11:34.279Z,16.10
2022-08-20T13:14:00.825Z,20.47
2022-08-20T13:16:27.449Z,21.70
2022-08-20T13:18:54.117Z,15.97
2022-08-20T13:21:23.914Z,15.10
2022-08-20T13:23:51.141Z,19.80
2022-08-20T13:26:17.738Z,11.10
2022-08-20T13:28:44.284Z,17.25
2022-08-20T13:31:11.125Z,15.97
2022-08-20T13:33:37.783Z,14.80
2022-08-20T13:36:04.362Z,12.02
2022-08-20T13:38:31.328Z,12.32
2022-08-20T13:40:58.025Z,12.47
2022-08-20T13:43:24.683Z,14.07
2022-08-20T13:45:51.257Z,16.83
2022-08-20T13:48:17.890Z,12.45
2022-08-20T13:50:47.273Z,17.90
2022-08-20T13:53:14.139Z,12.73
2022-08-20T13:55:43.258Z,14.65
2022-08-20T13:58:09.820Z,12.20
2022-08-20T14:00:36.497Z,10.23
2022-08-20T14:03:03.056Z,14.43
2022-08-20T14:05:29.628Z,12.23
2022-08-20T14:07:56.221Z,15.33
2022-08-20T14:10:24.202Z,11.37
2022-08-20T14:12:51.582Z,8.03
2022-08-20T14:15:20.139Z,12.57
2022-08-20T14:17:47.003Z,11.37
2022-08-20T14:20:17.842Z,10.13
2022-08-20T14:26:21.899Z,9.70
2022-08-20T14:28:48.418Z,7.13
2022-08-20T14:31:15.019Z,11.85
2022-08-20T14:33:44.677Z,9.88
2022-08-20T14:36:11.494Z,12.07
2022-08-20T14:38:41.377Z,12.90
2022-08-20T14:41:07.934Z,8.55
2022-08-20T14:43:34.540Z,13.10
2022-08-20T14:46:01.157Z,7.18
2022-08-20T14:48:28.238Z,9.75
2022-08-20T14:50:55.845Z,6.15
2022-08-20T14:53:22.368Z,8.27
2022-08-20T14:55:48.937Z,10.60
2022-08-20T14:58:16.825Z,12.93
2022-08-20T15:00:43.479Z,9.15
2022-08-20T15:03:10.124Z,7.95
2022-08-20T15:05:39.673Z,8.52
2022-08-20T15:08:06.690Z,10.63
2022-08-20T15:10:34.097Z,7.22
2022-08-20T15:13:00.797Z,9.80
2022-08-20T15:15:27.432Z,12.73
2022-08-20T15:17:54.943Z,12.70
2022-08-20T15:20:21.551Z,9.80
2022-08-20T15:22:48.171Z,10.18
2022-08-20T15:25:14.796Z,13.40
2022-08-20T15:27:41.827Z,12.13
2022-08-20T15:30:08.402Z,12.48
2022-08-20T15:32:35.047Z,11.77
2022-08-20T15:35:01.598Z,15.87
2022-08-20T15:37:28.200Z,13.17
2022-08-20T15:39:54.820Z,9.97
2022-08-20T15:42:21.391Z,14.45
2022-08-20T15:44:47.969Z,14.63
2022-08-20T15:47:14.971Z,11.10
2022-08-20T15:49:41.494Z,14.20
2022-08-20T15:52:08.060Z,11.20
2022-08-20T15:54:34.729Z,12.70
2022-08-20T15:57:01.359Z,13.90
2022-08-20T15:59:27.908Z,13.30
2022-08-20T16:01:54.578Z,9.68
2022-08-20T16:04:21.245Z,12.90
2022-08-20T16:06:47.803Z,12.27
2022-08-20T16:09:14.413Z,11.38
2022-08-20T16:11:40.964Z,13.18
2022-08-20T16:14:07.492Z,9.70
2022-08-20T16:16:34.865Z,10.68
2022-08-20T16:19:01.432Z,12.48
2022-08-20T16:21:27.988Z,8.75
2022-08-20T16:23:55.460Z,10.80
2022-08-20T16:26:22.006Z,11.32
2022-08-20T16:28:48.539Z,10.37
2022-08-20T16:31:15.279Z,12.90
2022-08-20T16:33:42.065Z,8.97
2022-08-20T16:36:08.606Z,10.00
2022-08-20T16:38:35.167Z,11.13
2022-08-20T16:41:01.779Z,15.67
2022-08-20T16:43:28.321Z,10.20
2022-08-20T16:45:54.912Z,11.60
2022-08-20T16:48:21.504Z,14.93
2022-08-20T16:50:48.050Z,11.83
2022-08-20T16:53:14.637Z,10.27
2022-08-20T16:55:41.930Z,12.93
2022-08-20T16:58:08.520Z,27.13
2022-08-20T17:00:35.799Z,11.23
2022-08-20T17:03:11.679Z,13.77
2022-08-20T17:05:38.231Z,8.93
2022-08-20T17:08:07.122Z,10.23
2022-08-20T17:10:33.861Z,8.37
2022-08-20T17:13:00.475Z,11.93
2022-08-20T17:15:27.088Z,9.60
2022-08-20T17:17:55.683Z,10.57
2022-08-20T17:20:22.238Z,13.97
2022-08-20T17:22:48.800Z,10.67
2022-08-20T17:25:15.385Z,11.03
2022-08-20T17:27:41.927Z,13.40
2022-08-20T17:30:08.475Z,13.93
2022-08-20T17:32:35.042Z,15.70
2022-08-20T17:35:01.638Z,13.13
2022-08-20T17:37:28.252Z,11.10
2022-08-20T17:39:55.121Z,14.33
2022-08-20T17:42:21.766Z,14.50
2022-08-20T17:44:52.255Z,9.90
2022-08-20T17:47:21.792Z,15.50
2022-08-20T17:49:54.073Z,14.13
2022-08-20T17:52:29.547Z,17.53
2022-08-20T17:54:56.315Z,9.47
2022-08-20T17:57:22.926Z,14.50
2022-08-20T18:00:01.194Z,10.97
2022-08-20T18:02:29.402Z,15.57
2022-08-20T18:04:55.948Z,8.57
2022-08-20T18:07:22.517Z,14.10
2022-08-20T18:09:50.112Z,15.10
2022-08-20T18:12:32.750Z,8.20
2022-08-20T18:15:00.970Z,9.53
2022-08-20T18:17:27.987Z,12.20
2022-08-20T18:19:54.527Z,16.20
2022-08-20T18:22:21.123Z,10.23
2022-08-20T18:24:48.048Z,7.80
2022-08-20T18:27:14.685Z,7.57
2022-08-20T18:29:41.250Z,6.77
2022-08-20T18:32:07.778Z,10.30
2022-08-20T18:34:35.136Z,15.47
2022-08-20T18:37:01.985Z,11.33
2022-08-20T18:39:28.540Z,17.67
2022-08-20T18:41:55.147Z,11.87
2022-08-20T18:44:21.683Z,9.37
2022-08-20T18:46:51.508Z,11.33
2022-08-20T18:49:18.300Z,12.10
2022-08-20T18:51:44.902Z,7.67
2022-08-20T18:54:11.481Z,8.10
2022-08-20T18:56:38.174Z,12.77
2022-08-20T18:59:04.767Z,11.33
2022-08-20T19:01:31.398Z,13.00
2022-08-20T19:03:58.131Z,13.13
2022-08-20T19:06:24.749Z,14.83
2022-08-20T19:08:51.504Z,10.23
2022-08-20T19:11:18.061Z,8.73
2022-08-20T19:13:46.000Z,10.97
2022-08-20T19:16:12.675Z,11.10
2022-08-20T19:18:39.244Z,9.07
2022-08-20T19:21:05.788Z,13.07
2022-08-20T19:23:42.297Z,18.40
2022-08-20T19:26:24.799Z,15.13
2022-08-20T19:28:52.282Z,10.60
2022-08-20T19:31:19.001Z,19.30
2022-08-20T19:33:46.822Z,12.10
2022-08-20T19:36:13.427Z,12.13
2022-08-20T19:38:39.965Z,12.13
2022-08-20T19:41:11.203Z,14.53
2022-08-20T19:43:38.429Z,14.73
2022-08-20T19:46:05.017Z,10.00
2022-08-20T19:48:31.550Z,24.13
2022-08-20T19:50:58.160Z,15.30
2022-08-20T19:53:30.319Z,12.30
2022-08-20T19:55:57.537Z,16.20
2022-08-20T19:58:26.684Z,13.50
2022-08-20T20:00:53.964Z,11.93
2022-08-20T20:03:21.900Z,13.37
2022-08-20T20:05:48.791Z,12.37
2022-08-20T20:08:15.829Z,13.13
2022-08-20T20:10:42.582Z,12.40
2022-08-20T20:13:09.132Z,20.73
2022-08-20T20:15:35.683Z,15.87
2022-08-20T20:18:02.252Z,12.97
2022-08-20T20:20:29.075Z,12.90
2022-08-20T20:22:55.848Z,22.03
2022-08-20T20:25:22.481Z,11.00
2022-08-20T20:27:49.043Z,9.77
2022-08-20T20:30:15.609Z,22.53
2022-08-20T20:32:42.189Z,14.47
2022-08-20T20:35:09.063Z,19.57
2022-08-20T20:37:41.536Z,11.70
2022-08-20T20:40:19.486Z,13.03
2022-08-20T20:42:47.060Z,12.87
2022-08-20T20:45:13.631Z,28.23
2022-08-20T20:47:40.143Z,14.43
2022-08-20T20:50:06.690Z,16.97
2022-08-20T20:52:33.325Z,16.50
2022-08-20T20:54:59.859Z,11.17
2022-08-20T20:57:38.488Z,18.07
2022-08-20T21:00:05.823Z,11.00
2022-08-20T21:02:33.432Z,11.57
2022-08-20T21:05:00.050Z,18.53
2022-08-20T21:07:26.621Z,14.17
2022-08-20T21:09:53.382Z,16.23
2022-08-20T21:12:20.273Z,17.03
2022-08-20T21:14:46.853Z,12.63
2022-08-20T21:17:13.435Z,17.13
2022-08-20T21:19:43.841Z,13.03
2022-08-20T21:22:11.958Z,19.20
2022-08-20T21:24:38.496Z,9.67
2022-08-20T21:27:05.082Z,17.43
2022-08-20T21:29:32.626Z,12.60
2022-08-20T21:31:59.572Z,12.63
2022-08-20T21:34:26.120Z,13.17
2022-08-20T21:36:53.083Z,17.30
2022-08-20T21:39:20.759Z,20.57
2022-08-20T21:41:47.296Z,25.07
2022-08-20T21:44:13.832Z,10.93
2022-08-20T21:46:42.003Z,18.60
2022-08-20T21:49:08.578Z,16.13
2022-08-20T21:51:35.937Z,11.80
2022-08-20T21:54:02.583Z,24.73
2022-08-20T21:56:29.208Z,14.57
2022-08-20T21:58:58.714Z,17.37
2022-08-20T22:01:25.329Z,15.93
2022-08-20T22:03:52.059Z,12.00
2022-08-20T22:06:18.692Z,11.40
2022-08-20T22:08:45.277Z,23.30
2022-08-20T22:11:11.841Z,19.97
2022-08-20T22:13:38.396Z,17.13
2022-08-20T22:16:04.970Z,15.90
2022-08-20T22:18:31.521Z,10.50
2022-08-20T22:20:58.233Z,14.13
2022-08-20T22:23:24.797Z,12.97
2022-08-20T22:25:51.354Z,12.97
2022-08-20T22:28:17.917Z,13.80
2022-08-20T22:30:44.490Z,8.83
2022-08-20T22:33:11.104Z,9.17
2022-08-20T22:35:37.619Z,15.07
2022-08-20T22:38:04.228Z,13.87
2022-08-20T22:40:30.763Z,9.73
2022-08-20T22:42:57.549Z,15.40
2022-08-20T22:45:24.151Z,12.80
2022-08-20T22:47:50.713Z,11.07
2022-08-20T22:50:17.263Z,10.97
2022-08-20T22:52:45.259Z,13.13
2022-08-20T22:55:11.783Z,8.50
2022-08-20T22:57:38.829Z,15.83
2022-08-20T23:00:05.367Z,5.67
2022-08-20T23:02:31.995Z,13.17
2022-08-20T23:04:58.526Z,15.40
2022-08-20T23:07:25.103Z,11.70
2022-08-20T23:09:51.662Z,10.07
2022-08-20T23:12:18.277Z,10.20
2022-08-20T23:14:44.902Z,14.37
2022-08-20T23:17:13.642Z,9.63
2022-08-20T23:19:40.505Z,11.70
2022-08-20T23:22:07.123Z,8.10
2022-08-20T23:24:33.664Z,14.77
2022-08-20T23:27:00.231Z,8.37
2022-08-20T23:29:26.826Z,11.37
2022-08-20T23:31:53.368Z,14.80
2022-08-20T23:34:19.906Z,14.10
2022-08-20T23:36:46.435Z,12.27
2022-08-20T23:39:13.122Z,12.10
2022-08-20T23:41:43.074Z,14.17
2022-08-20T23:44:26.196Z,9.63
2022-08-20T23:46:54.658Z,13.00
2022-08-20T23:49:21.314Z,15.87
2022-08-20T23:51:48.307Z,8.60
2022-08-20T23:54:14.972Z,15.23
2022-08-20T23:56:41.539Z,11.27
2022-08-20T23:59:08.121Z,15.23
